createdAt,value
2023-01-18T00:00:10.488Z,72.72
2023-01-18T00:02:37.371Z,73.28
2023-01-18T00:05:04.266Z,73.38
2023-01-18T00:07:31.480Z,72.81
2023-01-18T00:09:57.997Z,73.14
2023-01-18T00:12:24.458Z,72.42
2023-01-18T00:14:50.899Z,73.73
2023-01-18T00:17:17.364Z,72.65
2023-01-18T00:19:43.794Z,73.33
2023-01-18T00:22:10.250Z,73.88
2023-01-18T00:24:36.666Z,73.08
2023-01-18T00:27:03.125Z,73.03
2023-01-18T00:29:30.896Z,73.37
2023-01-18T00:31:57.401Z,73.55
2023-01-18T00:34:23.945Z,73.39
2023-01-18T00:36:50.458Z,73.92
2023-01-18T00:39:17.124Z,74.11
2023-01-18T00:42:03.722Z,73.97
2023-01-18T00:44:30.215Z,73.71
2023-01-18T00:46:56.720Z,73.60
2023-01-18T00:49:24.039Z,73.51
2023-01-18T00:51:52.220Z,74.13
2023-01-18T00:54:18.982Z,74.05
2023-01-18T00:56:45.449Z,74.59
2023-01-18T00:59:11.895Z,74.04
2023-01-18T01:01:38.533Z,75.21
2023-01-18T01:04:23.933Z,74.59
2023-01-18T01:06:50.439Z,74.27
2023-01-18T01:09:24.462Z,73.99
2023-01-18T01:12:10.141Z,74.02
2023-01-18T01:14:57.745Z,73.44
2023-01-18T01:17:42.968Z,72.54
2023-01-18T01:20:28.967Z,72.72
2023-01-18T01:23:14.042Z,72.60
2023-01-18T01:25:59.318Z,72.25
2023-01-18T01:28:25.970Z,72.06
2023-01-18T01:30:57.026Z,72.45
2023-01-18T01:33:23.547Z,72.02
2023-01-18T01:35:50.050Z,71.62
2023-01-18T01:38:16.554Z,71.29
2023-01-18T01:40:43.023Z,70.86
2023-01-18T01:43:12.911Z,71.32
2023-01-18T01:45:39.566Z,72.73
2023-01-18T01:48:06.165Z,72.01
2023-01-18T01:50:36.748Z,73.06
2023-01-18T01:53:03.689Z,72.64
2023-01-18T01:55:32.230Z,72.65
2023-01-18T01:58:10.381Z,72.01
2023-01-18T02:00:36.912Z,72.21
2023-01-18T02:03:09.704Z,71.64
2023-01-18T02:05:42.397Z,72.01
2023-01-18T02:08:11.532Z,72.60
2023-01-18T02:10:38.996Z,72.65
2023-01-18T02:13:07.514Z,72.88
2023-01-18T02:15:44.582Z,71.47
2023-01-18T02:18:23.232Z,72.98
2023-01-18T02:21:10.827Z,72.68
2023-01-18T02:23:46.293Z,71.45
2023-01-18T02:26:31.719Z,71.48
2023-01-18T02:29:10.849Z,72.26
2023-01-18T02:31:50.841Z,71.22
2023-01-18T02:34:38.608Z,72.52
2023-01-18T02:37:05.267Z,72.11
2023-01-18T02:39:55.631Z,72.47
2023-01-18T02:42:42.726Z,72.75
2023-01-18T02:45:46.068Z,72.54
2023-01-18T02:48:12.983Z,71.66
2023-01-18T02:50:39.516Z,71.90
2023-01-18T02:53:06.036Z,72.70
2023-01-18T02:55:35.493Z,72.18
2023-01-18T02:58:06.914Z,72.89
2023-01-18T03:00:34.845Z,72.02
2023-01-18T03:03:01.957Z,71.68
2023-01-18T03:05:30.195Z,71.49
2023-01-18T03:08:11.493Z,71.44
2023-01-18T03:10:45.096Z,71.65
2023-01-18T03:13:16.458Z,71.64
2023-01-18T03:15:45.529Z,72.18
2023-01-18T03:19:03.010Z,71.85
2023-01-18T03:21:45.247Z,72.23
2023-01-18T03:24:12.231Z,73.84
2023-01-18T03:26:42.373Z,74.16
2023-01-18T03:29:28.126Z,73.34
2023-01-18T03:32:29.248Z,73.31
2023-01-18T03:34:58.655Z,73.49
2023-01-18T03:37:37.842Z,75.52
2023-01-18T03:40:13.048Z,74.22
2023-01-18T03:42:58.720Z,74.79
2023-01-18T03:45:31.041Z,73.88
2023-01-18T03:47:57.540Z,73.95
2023-01-18T03:50:31.282Z,74.11
2023-01-18T03:52:59.485Z,73.79
2023-01-18T03:55:50.364Z,72.50
2023-01-18T03:58:20.104Z,72.89
2023-01-18T04:00:46.784Z,73.04
2023-01-18T04:03:13.476Z,72.66
2023-01-18T04:05:40.107Z,73.96
2023-01-18T04:08:06.751Z,74.14
2023-01-18T04:10:33.223Z,73.18
2023-01-18T04:13:00.138Z,73.05
2023-01-18T04:15:26.919Z,73.98
2023-01-18T04:17:55.819Z,72.50
2023-01-18T04:20:23.351Z,73.58
2023-01-18T04:22:54.202Z,73.55
2023-01-18T04:25:21.004Z,73.66
2023-01-18T04:27:47.463Z,73.42
2023-01-18T04:30:14.054Z,72.14
2023-01-18T04:32:42.735Z,73.29
2023-01-18T04:35:10.230Z,73.35
2023-01-18T04:37:38.361Z,72.47
2023-01-18T04:40:06.183Z,73.84
2023-01-18T04:42:32.819Z,73.02
2023-01-18T04:45:00.089Z,72.59
2023-01-18T04:47:29.112Z,72.72
2023-01-18T04:49:57.515Z,70.39
2023-01-18T04:52:24.904Z,71.81
2023-01-18T04:54:51.385Z,71.63
2023-01-18T04:57:18.206Z,72.31
2023-01-18T04:59:46.058Z,71.90
2023-01-18T05:02:13.082Z,72.40
2023-01-18T05:04:39.553Z,71.39
2023-01-18T05:07:06.086Z,72.70
2023-01-18T05:09:32.544Z,72.58
2023-01-18T05:11:59.160Z,72.45
2023-01-18T05:14:25.615Z,71.85
2023-01-18T05:16:52.075Z,71.47
2023-01-18T05:19:18.583Z,72.84
2023-01-18T05:21:45.054Z,71.88
2023-01-18T05:24:11.607Z,69.93
2023-01-18T05:26:38.459Z,71.92
2023-01-18T05:29:04.926Z,70.81
2023-01-18T05:31:31.488Z,71.37
2023-01-18T05:33:57.961Z,70.86
2023-01-18T05:36:24.533Z,70.70
2023-01-18T05:38:50.966Z,71.26
2023-01-18T05:41:17.447Z,70.95
2023-01-18T05:43:43.944Z,70.56
2023-01-18T05:46:10.457Z,70.33
2023-01-18T05:48:36.980Z,71.23
2023-01-18T05:51:09.190Z,70.83
2023-01-18T05:53:35.715Z,70.17
2023-01-18T05:56:05.222Z,69.76
2023-01-18T05:58:31.926Z,70.19
2023-01-18T06:00:58.754Z,69.67
2023-01-18T06:03:25.543Z,68.18
2023-01-18T06:05:52.496Z,68.47
2023-01-18T06:08:19.592Z,68.07
2023-01-18T06:10:55.881Z,68.12
2023-01-18T06:13:23.727Z,67.75
2023-01-18T06:15:51.881Z,67.58
2023-01-18T06:18:18.357Z,68.08
2023-01-18T06:20:44.836Z,69.38
2023-01-18T06:23:11.408Z,69.87
2023-01-18T06:25:38.093Z,68.60
2023-01-18T06:28:05.285Z,68.96
2023-01-18T06:30:32.644Z,68.93
2023-01-18T06:33:04.790Z,68.83
2023-01-18T06:35:31.226Z,69.13
2023-01-18T06:37:58.029Z,70.08
2023-01-18T06:40:24.466Z,70.76
2023-01-18T06:42:50.946Z,71.52
2023-01-18T06:45:19.587Z,71.97
2023-01-18T06:47:46.132Z,71.59
2023-01-18T06:50:12.646Z,69.91
2023-01-18T06:52:39.134Z,70.74
2023-01-18T06:55:05.817Z,70.74
2023-01-18T06:57:32.283Z,70.26
2023-01-18T06:59:58.737Z,70.37
2023-01-18T07:02:25.347Z,71.29
2023-01-18T07:04:51.833Z,71.34
2023-01-18T07:07:18.310Z,70.89
2023-01-18T07:09:44.762Z,70.57
2023-01-18T07:12:11.284Z,70.99
2023-01-18T07:14:37.783Z,69.42
2023-01-18T07:17:04.830Z,69.79
2023-01-18T07:19:31.521Z,69.51
2023-01-18T07:21:58.948Z,70.48
2023-01-18T07:24:25.448Z,71.06
2023-01-18T07:26:51.938Z,69.72
2023-01-18T07:29:18.391Z,71.31
2023-01-18T07:31:44.891Z,69.23
2023-01-18T07:34:11.712Z,69.33
2023-01-18T07:36:41.983Z,68.18
2023-01-18T07:39:09.422Z,68.50
2023-01-18T07:41:35.968Z,67.56
2023-01-18T07:44:03.165Z,68.18
2023-01-18T07:46:29.860Z,70.50
2023-01-18T07:48:56.379Z,69.60
2023-01-18T07:51:22.968Z,69.56
2023-01-18T07:53:53.509Z,70.47
2023-01-18T07:56:20.285Z,70.72
2023-01-18T07:58:46.932Z,71.09
2023-01-18T08:01:16.307Z,70.10
2023-01-18T08:03:44.069Z,70.53
2023-01-18T08:06:12.768Z,70.39
2023-01-18T08:08:40.125Z,70.09
2023-01-18T08:11:07.419Z,71.29
2023-01-18T08:13:34.214Z,69.82
2023-01-18T08:16:02.169Z,69.69
2023-01-18T08:18:28.807Z,70.58
2023-01-18T08:20:55.371Z,69.53
2023-01-18T08:23:22.056Z,68.28
2023-01-18T08:25:48.578Z,69.58
2023-01-18T08:28:15.478Z,68.45
2023-01-18T08:30:44.793Z,69.20
2023-01-18T08:33:11.431Z,68.34
2023-01-18T08:35:45.545Z,69.54
2023-01-18T08:38:14.381Z,69.40
2023-01-18T08:40:40.992Z,69.05
2023-01-18T08:43:07.809Z,69.83
2023-01-18T08:45:37.223Z,70.12
2023-01-18T08:48:06.505Z,71.14
2023-01-18T08:50:34.553Z,71.54
2023-01-18T08:53:02.697Z,71.85
2023-01-18T08:55:29.887Z,72.08
2023-01-18T08:57:57.721Z,73.25
2023-01-18T09:00:26.905Z,71.89
2023-01-18T09:02:53.547Z,72.65
2023-01-18T09:05:20.082Z,73.02
2023-01-18T09:07:47.489Z,72.10
2023-01-18T09:10:14.272Z,71.34
2023-01-18T09:12:40.822Z,70.83
2023-01-18T09:15:07.944Z,72.54
2023-01-18T09:17:34.460Z,71.50
2023-01-18T09:20:00.919Z,70.27
2023-01-18T09:22:27.444Z,70.35
2023-01-18T09:24:53.915Z,71.86
2023-01-18T09:27:20.439Z,69.44
2023-01-18T09:29:52.382Z,70.21
2023-01-18T09:32:20.076Z,70.18
2023-01-18T09:34:50.616Z,70.82
2023-01-18T09:37:19.085Z,71.35
2023-01-18T09:39:51.757Z,70.43
2023-01-18T09:42:22.105Z,69.81
2023-01-18T09:44:52.185Z,69.69
2023-01-18T09:47:34.422Z,69.36
2023-01-18T09:50:06.373Z,70.77
2023-01-18T09:52:32.912Z,69.80
2023-01-18T09:55:16.008Z,70.67
2023-01-18T09:58:00.780Z,69.97
2023-01-18T10:00:30.086Z,70.84
2023-01-18T10:03:04.531Z,70.22
2023-01-18T10:05:41.809Z,69.99
2023-01-18T10:08:15.971Z,69.93
2023-01-18T10:11:00.224Z,69.40
2023-01-18T10:13:32.655Z,70.34
2023-01-18T10:15:59.258Z,68.99
2023-01-18T10:18:25.901Z,68.99
2023-01-18T10:20:57.780Z,69.32
2023-01-18T10:23:47.020Z,69.68
2023-01-18T10:26:19.537Z,70.51
2023-01-18T10:28:55.295Z,69.78
2023-01-18T10:31:32.988Z,68.85
2023-01-18T10:34:00.625Z,69.11
2023-01-18T10:36:38.434Z,68.16
2023-01-18T10:39:11.989Z,68.69
2023-01-18T10:41:40.696Z,68.62
2023-01-18T10:44:09.337Z,68.10
2023-01-18T10:46:35.942Z,68.48
2023-01-18T10:49:03.107Z,68.31
2023-01-18T10:51:37.773Z,67.57
2023-01-18T10:54:33.646Z,66.92
2023-01-18T10:57:05.192Z,67.91
2023-01-18T10:59:37.473Z,67.28
2023-01-18T11:02:05.130Z,68.03
2023-01-18T11:04:32.766Z,68.28
2023-01-18T11:07:01.201Z,67.08
2023-01-18T11:09:56.013Z,67.89
2023-01-18T11:12:34.850Z,67.88
2023-01-18T11:15:13.497Z,67.12
2023-01-18T11:17:44.266Z,66.44
2023-01-18T11:20:20.152Z,68.30
2023-01-18T11:22:53.775Z,66.91
2023-01-18T11:25:20.358Z,67.65
2023-01-18T11:27:49.990Z,68.59
2023-01-18T11:30:21.438Z,66.78
2023-01-18T11:32:48.022Z,66.00
2023-01-18T11:35:34.925Z,66.96
2023-01-18T11:38:03.095Z,65.65
2023-01-18T11:40:32.676Z,64.79
2023-01-18T11:43:16.185Z,66.29
2023-01-18T11:45:59.403Z,66.33
2023-01-18T11:48:46.726Z,65.43
2023-01-18T11:51:24.202Z,66.83
2023-01-18T11:53:58.863Z,66.32
2023-01-18T11:56:42.958Z,66.08
2023-01-18T11:59:33.614Z,66.52
2023-01-18T12:02:05.665Z,65.81
2023-01-18T12:05:02.174Z,65.46
2023-01-18T12:07:40.530Z,66.50
2023-01-18T12:10:12.962Z,65.39
2023-01-18T12:13:01.219Z,65.24
2023-01-18T12:15:51.866Z,65.03
2023-01-18T12:18:30.348Z,65.03
2023-01-18T12:21:13.018Z,64.89
2023-01-18T12:23:54.777Z,65.31
2023-01-18T12:26:55.462Z,64.26
2023-01-18T12:29:52.483Z,64.43
2023-01-18T12:32:47.595Z,63.75
2023-01-18T12:35:48.801Z,64.40
2023-01-18T12:38:24.929Z,63.42
2023-01-18T12:41:11.924Z,63.43
2023-01-18T12:43:56.227Z,64.30
2023-01-18T12:46:31.644Z,62.59
2023-01-18T12:49:02.606Z,63.17
2023-01-18T12:51:32.713Z,62.20
2023-01-18T12:54:02.487Z,62.23
2023-01-18T12:56:35.618Z,61.97
2023-01-18T12:59:15.883Z,61.96
2023-01-18T13:02:00.475Z,61.99
2023-01-18T13:04:32.775Z,61.71
2023-01-18T13:07:07.070Z,62.10
2023-01-18T13:09:38.387Z,61.13
2023-01-18T13:12:05.843Z,60.62
2023-01-18T13:14:43.546Z,61.28
2023-01-18T13:17:17.790Z,61.68
2023-01-18T13:19:47.483Z,60.89
2023-01-18T13:22:32.014Z,61.62
2023-01-18T13:25:29.585Z,60.87
2023-01-18T13:28:19.321Z,60.59
2023-01-18T13:30:56.484Z,60.60
2023-01-18T13:33:24.966Z,61.75
2023-01-18T13:35:55.105Z,62.29
2023-01-18T13:38:40.231Z,63.21
2023-01-18T13:41:10.556Z,61.50
2023-01-18T13:43:37.010Z,62.96
2023-01-18T13:46:06.646Z,61.24
2023-01-18T13:48:54.376Z,62.07
2023-01-18T13:51:44.950Z,62.07
2023-01-18T13:54:35.576Z,62.21
2023-01-18T13:57:02.693Z,63.05
2023-01-18T13:59:34.266Z,63.29
2023-01-18T14:02:34.135Z,62.69
2023-01-18T14:05:04.775Z,61.90
2023-01-18T14:07:38.793Z,61.61
2023-01-18T14:10:08.216Z,62.81
2023-01-18T14:12:49.427Z,62.74
2023-01-18T14:15:39.365Z,62.09
2023-01-18T14:18:32.969Z,62.63
2023-01-18T14:21:14.974Z,63.63
2023-01-18T14:24:06.151Z,62.56
2023-01-18T14:26:35.346Z,63.09
2023-01-18T14:29:06.387Z,62.92
2023-01-18T14:31:35.542Z,62.91
2023-01-18T14:34:30.167Z,62.38
2023-01-18T14:36:57.418Z,62.70
2023-01-18T14:39:24.234Z,63.04
2023-01-18T14:41:59.926Z,62.53
2023-01-18T14:44:40.735Z,63.56
2023-01-18T14:47:23.894Z,64.28
2023-01-18T14:49:50.632Z,63.49
2023-01-18T14:52:18.414Z,64.71
2023-01-18T14:54:52.226Z,63.45
2023-01-18T14:57:18.710Z,64.24
2023-01-18T14:59:52.714Z,63.94
2023-01-18T15:02:25.119Z,64.23
2023-01-18T15:04:52.498Z,63.76
2023-01-18T15:07:39.211Z,63.33
2023-01-18T15:10:07.395Z,64.33
2023-01-18T15:12:34.373Z,63.80
2023-01-18T15:15:11.656Z,64.07
2023-01-18T15:17:38.170Z,63.87
2023-01-18T15:20:08.068Z,63.63
2023-01-18T15:22:37.122Z,64.63
2023-01-18T15:25:04.137Z,65.79
2023-01-18T15:27:33.697Z,65.15
2023-01-18T15:30:01.679Z,64.97
2023-01-18T15:32:33.662Z,64.69
2023-01-18T15:35:00.952Z,63.94
2023-01-18T15:37:33.749Z,66.65
2023-01-18T15:40:02.545Z,65.47
2023-01-18T15:42:38.715Z,65.41
2023-01-18T15:45:12.740Z,65.49
2023-01-18T15:47:39.330Z,65.35
2023-01-18T15:50:16.149Z,64.84
2023-01-18T15:52:47.313Z,65.17
2023-01-18T15:55:41.388Z,65.33
2023-01-18T15:58:14.522Z,64.29
2023-01-18T16:00:55.571Z,64.62
2023-01-18T16:03:23.809Z,65.75
2023-01-18T16:06:06.778Z,66.60
2023-01-18T16:08:34.221Z,66.54
2023-01-18T16:11:00.775Z,66.21
2023-01-18T16:13:38.682Z,66.87
2023-01-18T16:16:16.159Z,65.91
2023-01-18T16:18:45.350Z,66.25
2023-01-18T16:21:40.375Z,66.04
2023-01-18T16:24:46.106Z,65.14
2023-01-18T16:27:15.445Z,64.74
2023-01-18T16:29:44.823Z,65.56
2023-01-18T16:32:27.888Z,66.15
2023-01-18T16:35:15.913Z,66.56
2023-01-18T16:37:44.504Z,66.51
2023-01-18T16:40:19.986Z,67.13
2023-01-18T16:43:04.893Z,65.45
2023-01-18T16:45:36.489Z,66.41
2023-01-18T16:48:06.753Z,66.10
2023-01-18T16:50:33.301Z,66.73
2023-01-18T16:52:59.905Z,66.46
2023-01-18T16:55:26.986Z,67.17
2023-01-18T16:57:53.779Z,66.54
2023-01-18T17:00:23.083Z,67.25
2023-01-18T17:02:49.931Z,67.43
2023-01-18T17:05:21.491Z,67.28
2023-01-18T17:07:48.301Z,67.25
2023-01-18T17:12:49.058Z,67.57
2023-01-18T17:15:15.917Z,68.13
2023-01-18T17:17:43.371Z,68.16
2023-01-18T17:20:15.597Z,66.63
2023-01-18T17:22:42.156Z,67.97
2023-01-18T17:25:09.044Z,68.17
2023-01-18T17:27:35.767Z,68.16
2023-01-18T17:30:02.450Z,68.92
2023-01-18T17:32:29.023Z,68.67
2023-01-18T17:34:55.461Z,67.85
2023-01-18T17:37:21.907Z,68.17
2023-01-18T17:40:02.407Z,69.01
2023-01-18T17:42:30.609Z,69.04
2023-01-18T17:45:03.246Z,68.77
2023-01-18T17:47:30.965Z,69.18
2023-01-18T17:49:57.466Z,68.08
2023-01-18T17:52:24.201Z,69.32
2023-01-18T17:54:50.915Z,69.58
2023-01-18T17:57:18.265Z,67.57
2023-01-18T17:59:44.812Z,68.18
2023-01-18T18:02:11.900Z,67.88
2023-01-18T18:04:38.789Z,68.64
2023-01-18T18:07:05.225Z,68.96
2023-01-18T18:09:32.538Z,68.74
2023-01-18T18:11:59.010Z,68.58
2023-01-18T18:14:26.200Z,69.19
2023-01-18T18:16:55.752Z,68.17
2023-01-18T18:19:25.427Z,68.60
2023-01-18T18:21:55.508Z,68.92
2023-01-18T18:24:22.980Z,68.66
2023-01-18T18:26:49.438Z,68.74
2023-01-18T18:29:16.744Z,69.64
2023-01-18T18:31:44.826Z,69.16
2023-01-18T18:34:12.045Z,68.99
2023-01-18T18:36:38.619Z,68.95
2023-01-18T18:39:05.573Z,68.70
2023-01-18T18:41:32.738Z,69.23
2023-01-18T18:44:03.596Z,69.05
2023-01-18T18:46:30.267Z,68.71
2023-01-18T18:48:56.898Z,68.15
2023-01-18T18:51:24.493Z,68.80
2023-01-18T18:53:51.260Z,70.04
2023-01-18T18:56:17.967Z,69.06
2023-01-18T18:58:46.047Z,69.64
2023-01-18T19:01:23.483Z,69.22
2023-01-18T19:03:51.769Z,69.96
2023-01-18T19:06:20.321Z,70.42
2023-01-18T19:08:47.547Z,69.33
2023-01-18T19:11:15.517Z,69.77
2023-01-18T19:13:42.902Z,70.24
2023-01-18T19:16:09.553Z,70.30
2023-01-18T19:18:36.531Z,69.75
2023-01-18T19:21:03.453Z,70.95
2023-01-18T19:23:30.059Z,71.07
2023-01-18T19:25:56.759Z,69.51
2023-01-18T19:28:23.499Z,69.55
2023-01-18T19:30:49.945Z,69.87
2023-01-18T19:33:16.599Z,70.56
2023-01-18T19:35:44.964Z,70.41
2023-01-18T19:38:12.315Z,71.11
2023-01-18T19:40:39.146Z,70.71
2023-01-18T19:43:05.752Z,71.41
2023-01-18T19:45:32.271Z,71.28
2023-01-18T19:48:00.683Z,70.01
2023-01-18T19:50:28.452Z,71.94
2023-01-18T19:52:55.158Z,71.70
2023-01-18T19:55:26.338Z,71.77
2023-01-18T19:57:57.074Z,71.09
2023-01-18T20:00:23.935Z,72.53
2023-01-18T20:02:50.484Z,71.75
2023-01-18T20:05:17.051Z,70.06
2023-01-18T20:07:43.598Z,71.22
2023-01-18T20:10:10.790Z,71.62
2023-01-18T20:12:38.372Z,71.37
2023-01-18T20:15:06.222Z,70.50
2023-01-18T20:17:34.135Z,69.56
2023-01-18T20:20:00.607Z,71.58
2023-01-18T20:22:27.123Z,71.20
2023-01-18T20:24:54.452Z,71.68
2023-01-18T20:27:20.909Z,70.87
2023-01-18T20:29:47.380Z,71.06
2023-01-18T20:32:16.605Z,70.83
2023-01-18T20:34:47.172Z,71.92
2023-01-18T20:37:14.773Z,71.26
2023-01-18T20:39:41.420Z,71.82
2023-01-18T20:42:08.313Z,71.40
2023-01-18T20:44:34.922Z,72.53
2023-01-18T20:47:02.030Z,71.28
2023-01-18T20:49:43.728Z,71.56
2023-01-18T20:52:10.334Z,71.50
2023-01-18T20:54:37.961Z,71.38
2023-01-18T20:57:05.835Z,71.11
2023-01-18T20:59:32.815Z,70.87
2023-01-18T21:01:59.407Z,71.70
2023-01-18T21:04:26.113Z,72.15
2023-01-18T21:06:52.593Z,72.56
2023-01-18T21:09:19.080Z,71.71
2023-01-18T21:11:45.752Z,71.26
2023-01-18T21:14:12.713Z,71.87
2023-01-18T21:16:39.412Z,71.45
2023-01-18T21:19:05.884Z,71.74
2023-01-18T21:21:32.465Z,70.61
2023-01-18T21:23:59.984Z,71.79
2023-01-18T21:26:26.497Z,72.25
2023-01-18T21:28:53.297Z,71.47
2023-01-18T21:31:19.831Z,71.40
2023-01-18T21:33:46.397Z,71.40
2023-01-18T21:36:15.449Z,69.57
2023-01-18T21:38:42.021Z,70.85
2023-01-18T21:41:27.121Z,71.30
2023-01-18T21:44:13.283Z,71.31
2023-01-18T21:46:47.172Z,72.13
2023-01-18T21:49:52.067Z,71.31
2023-01-18T21:52:37.704Z,70.91
2023-01-18T21:55:04.529Z,70.51
2023-01-18T21:57:31.030Z,71.00
2023-01-18T21:59:57.517Z,71.57
2023-01-18T22:02:24.088Z,71.59
2023-01-18T22:04:57.700Z,71.42
2023-01-18T22:07:24.531Z,71.89
2023-01-18T22:10:03.365Z,72.46
2023-01-18T22:12:32.760Z,72.84
2023-01-18T22:15:01.465Z,73.25
2023-01-18T22:17:29.056Z,72.17
2023-01-18T22:19:55.645Z,72.78
2023-01-18T22:22:22.188Z,73.04
2023-01-18T22:24:49.677Z,73.03
2023-01-18T22:27:16.250Z,73.41
2023-01-18T22:29:42.839Z,73.67
2023-01-18T22:32:09.357Z,75.04
2023-01-18T22:34:36.290Z,75.19
2023-01-18T22:37:03.385Z,77.53
2023-01-18T22:39:29.959Z,77.36
2023-01-18T22:41:56.479Z,78.77
2023-01-18T22:44:23.115Z,77.97
2023-01-18T22:46:49.700Z,77.51
2023-01-18T22:49:17.282Z,77.99
2023-01-18T22:51:44.458Z,77.92
2023-01-18T22:54:10.913Z,78.08
2023-01-18T22:56:37.388Z,78.17
2023-01-18T22:59:03.848Z,77.66
2023-01-18T23:01:32.062Z,76.81
2023-01-18T23:04:00.675Z,78.43
2023-01-18T23:06:28.208Z,78.97
2023-01-18T23:08:55.543Z,80.51
2023-01-18T23:14:16.731Z,80.98
2023-01-18T23:17:02.354Z,80.56
2023-01-18T23:19:30.585Z,80.88
2023-01-18T23:21:57.555Z,81.61
2023-01-18T23:24:24.131Z,82.23
2023-01-18T23:26:50.731Z,80.87
2023-01-18T23:29:17.459Z,82.58
2023-01-18T23:31:44.192Z,82.55
2023-01-18T23:34:10.704Z,81.93
2023-01-18T23:36:37.145Z,83.44
2023-01-18T23:39:22.264Z,82.00
2023-01-18T23:42:07.431Z,82.82
2023-01-18T23:44:52.553Z,82.03
2023-01-18T23:47:37.788Z,82.43
2023-01-18T23:50:22.858Z,82.80
2023-01-18T23:53:07.997Z,82.70
2023-01-18T23:55:34.474Z,82.47
2023-01-18T23:58:01.300Z,84.28
